METAR Data
IDs: Format: Raw Decoded Include TAF

Data at: 2157 UTC 18 Sep 2018

KOLU 182156Z AUTO 11010G18KT 10SM SCT100 23/20 A2987 RMK AO2 PK WND 11029/2058 SLP107 T02330200
KOLU 182056Z AUTO 11018G27KT 10SM FEW021 BKN110 21/19 A2985 RMK AO2 PK WND 11027/2056 LTG DSNT E AND SE TSE25B27E39 SLP100 P0034 60053 T02110194 58031
KOLU 182045Z AUTO 09013G19KT 10SM FEW027 SCT065 BKN100 20/19 A2989 RMK AO2 LTG DSNT NE-S TSE25B27E39 P0034
KOLU 182035Z AUTO 10014G18KT 8SM VCTS FEW019 BKN070 OVC110 19/19 A2990 RMK AO2 LTG DSNT NE-S TSE25B27 P0034
KOLU 182028Z AUTO 09012G16KT 2SM TS BR FEW034 BKN070 OVC090 19/18 A2992 RMK AO2 VIS 1/2V5 LTG DSNT NE-S TSE25B27 P0033
KOLU 182017Z AUTO 04007KT 1SM TS BR FEW037 BKN050 OVC090 19/18 A2994 RMK AO2 VIS 1/2V3 LTG DSNT ALQDS P0028
KOLU 182012Z AUTO 05007KT 1/2SM TS FG FEW040 BKN055 OVC090 19/18 A2997 RMK AO2 VIS 1/4V3 LTG DSNT ALQDS P0021
KOLU 182004Z AUTO 07007KT 020V100 3/4SM TS BR SCT038 BKN050 OVC110 20/18 A3000 RMK AO2 VIS 1/4V4 LTG DSNT ALQDS P0011
KOLU 182000Z AUTO 03007KT 1 1/2SM TS BR SCT038 BKN055 OVC100 20/18 A3000 RMK AO2 LTG DSNT ALQDS P0005
KOLU 181956Z AUTO 36007KT 7SM TS FEW038 SCT048 OVC085 21/18 A3001 RMK AO2 LTG DSNT ALQDS TSB1859 SLP153 P0019 T02060183
KOLU 181937Z AUTO 08015G20KT 10SM VCTS FEW016 SCT024 BKN080 21/19 A2993 RMK AO2 LTG DSNT ALQDS TSB1859 P0018
KOLU 181924Z AUTO 06014G18KT 3SM TS BR FEW014 BKN022 OVC080 21/19 A2995 RMK AO2 LTG DSNT ALQDS TSB1859 P0018
KOLU 181922Z AUTO 06014G18KT 1 3/4SM TS BR FEW014 BKN022 OVC080 21/19 A2995 RMK AO2 LTG DSNT W-NE TSB1859 PRESFR P0018
KOLU 181920Z AUTO 06013G18KT 3/4SM TS BR FEW016 BKN025 OVC075 21/18 A2995 RMK AO2 LTG DSNT W-NE TSB1859 P0017
KOLU 181912Z AUTO 06007KT 340V080 1/2SM TS HZ FEW016 SCT026 OVC080 22/18 A2997 RMK AO2 LTG DSNT N AND NW TSB1859 P0015
KOLU 181910Z AUTO 07009KT 1SM TS HZ FEW016 SCT048 OVC080 22/18 A2996 RMK AO2 LTG DSNT N AND NW TSB1859 P0010
KOLU 181905Z AUTO 03009G21KT 7SM TS FEW025 OVC080 23/17 A3001 RMK AO2 LTG DSNT N AND NW TSB1859 PRESRR
KOLU 181856Z AUTO 07012G22KT 10SM BKN080 23/18 A2994 RMK AO2 PK WND 08026/1812 LTG DSNT N AND NW SLP129 T02330178
KOLU 181756Z AUTO 06016G27KT 10SM CLR 25/19 A2995 RMK AO2 PK WND 07027/1752 TSE06 SLP131 T02500189 10272 20211 50008
KOLU 181737Z AUTO 05016G23KT 7SM SCT020 25/19 A2996 RMK AO2 LTG DSNT NE TSE06
KOLU 181712Z AUTO 01013G21KT 10SM OVC020 24/19 A2998 RMK AO2 LTG DSNT N TSE06
KOLU 181656Z AUTO 01013KT 10SM VCTS OVC020 25/20 A2998 RMK AO2 LTG DSNT NW-NE TSB51 SLP140 T02500200
KOLU 181643Z AUTO 02008KT 10SM BKN022 26/21 A2997 RMK AO2 LTG DSNT N AND NE PRESRR
KOLU 181613Z AUTO 04009KT 10SM SCT020 26/21 A2994 RMK AO2 LTG DSNT N AND NW
KOLU 181606Z AUTO 03009KT 10SM BKN022 26/21 A2995 RMK AO2 LTG DSNT N AND NW
KOLU 181556Z AUTO 02011G15KT 10SM SCT022 SCT090 26/21 A2995 RMK AO2 SLP129 T02610211
KOLU 181456Z AUTO 05004KT 10SM CLR 26/21 A2992 RMK AO2 SLP120 T02610211 51005
KOLU 181356Z AUTO 00000KT 10SM CLR 24/21 A2992 RMK AO2 SLP119 T02440206
KOLU 181256Z AUTO 31003KT 10SM BKN080 BKN095 22/21 A2993 RMK AO2 SLP123 T02170206
KOLU 181156Z AUTO 19003KT 10SM CLR 22/20 A2991 RMK AO2 SLP115 T02220200 10250 20222 53005
KOLU 181056Z AUTO 22003KT 10SM CLR 23/21 A2991 RMK AO2 SLP113 T02280206
KOLU 180956Z AUTO 18008KT 10SM CLR 24/21 A2989 RMK AO2 SLP106 T02390206
KOLU 180856Z AUTO 18009KT 10SM CLR 24/21 A2989 RMK AO2 SLP108 T02390211 58006
KOLU 180756Z AUTO 18009KT 10SM CLR 24/21 A2991 RMK AO2 SLP113 T02440211
KOLU 180656Z AUTO 18010G15KT 10SM CLR 25/ A2991 RMK AO2 SLP115 T0250
KOLU 180556Z AUTO 17008KT 10SM CLR 25/21 A2991 RMK AO2 SLP114 T02500211 10317 20250 403500183 50005
KOLU 180456Z AUTO 17008KT 10SM CLR 26/21 A2991 RMK AO2 SLP116 T02610211
KOLU 180256Z AUTO 18010KT 10SM CLR 27/21 A2989 RMK AO2 SLP112 T02670206 53013 TSNO
KOLU 180156Z AUTO 15006KT 10SM CLR 26/20 A2988 RMK AO2 SLP107 T02610200
KOLU 180056Z AUTO 15007KT 10SM CLR 29/19 A2985 RMK AO2 SLP099 T02890194
KOLU 172356Z AUTO 15006KT 10SM BKN080 32/19 A2985 RMK AO2 SLP098 T03220194 10350 20322 55004
KOLU 172256Z AUTO 19006KT 10SM CLR 34/18 A2985 RMK AO2 SLP096 T03390183
KOLU 172156Z AUTO 21009KT 10SM CLR 34/18 A2985 RMK AO2 SLP097 T03440178
KOLU 171956Z AUTO 21009KT 10SM CLR 34/17 A2988 RMK AO2 SLP106 T03440172
KOLU 171856Z AUTO 17009KT 10SM CLR 34/18 A2990 RMK AO2 SLP110 T03390183
KOLU 171756Z AUTO 20007KT 10SM CLR 33/19 A2992 RMK AO2 SLP117 T03280194 10333 20183 57007
KOLU 171656Z AUTO 20005KT 10SM CLR 31/21 A2992 RMK AO2 SLP120 T03060211
KOLU 171556Z AUTO VRB05KT 10SM CLR 28/21 A2993 RMK AO2 SLP124 T02830211
KOLU 171456Z AUTO 21006KT 10SM CLR 26/21 A2994 RMK AO2 SLP128 T02560206 51003
KOLU 171356Z AUTO 19007KT 10SM CLR 23/19 A2994 RMK AO2 SLP128 T02280194
KOLU 171156Z AUTO 13004KT 10SM CLR 19/18 A2993 RMK AO2 SLP125 T01940183 10228 20194 56002
KOLU 171056Z AUTO 17004KT 10SM CLR 20/18 A2993 RMK AO2 SLP124 T02000183